Terminal Aerodrome Forecast
Issued by NWS

Home | Current Version | Previous Version | Text Only | Print | Product List | Glossary On
Versions: 1 2 3 4 5 6 7 8 9 10 11 12 13 14
000
FTUS43 KPAH 261138
TAFCGI
TAF
KCGI 261138Z 2612/2712 VRB03KT 5SM BR OVC050
     FM261500 35008KT 6SM -SN OVC015
     FM261700 35012G19KT P6SM OVC015=

USA.gov is the U.S. government's official web portal to all federal, state and local government web resources and services.